sensor_id;sensor_type;location;lat;lon;timestamp;P1;durP1;ratioP1;P2;durP2;ratioP2
70433;SDS011;57876;47.792;12.960;2022-12-20T00:01:29;9.70;;;4.60;;
70433;SDS011;57876;47.792;12.960;2022-12-20T00:03:56;9.88;;;5.10;;
70433;SDS011;57876;47.792;12.960;2022-12-20T00:06:22;9.73;;;4.93;;
70433;SDS011;57876;47.792;12.960;2022-12-20T00:08:52;9.43;;;5.10;;
70433;SDS011;57876;47.792;12.960;2022-12-20T00:11:17;9.88;;;4.97;;
70433;SDS011;57876;47.792;12.960;2022-12-20T00:13:41;9.80;;;5.10;;
70433;SDS011;57876;47.792;12.960;2022-12-20T00:16:10;9.35;;;4.85;;
70433;SDS011;57876;47.792;12.960;2022-12-20T00:18:35;9.37;;;4.90;;
70433;SDS011;57876;47.792;12.960;2022-12-20T00:21:01;8.30;;;4.32;;
70433;SDS011;57876;47.792;12.960;2022-12-20T00:23:27;9.52;;;4.80;;
70433;SDS011;57876;47.792;12.960;2022-12-20T00:25:52;9.32;;;4.10;;
70433;SDS011;57876;47.792;12.960;2022-12-20T00:28:25;9.35;;;4.68;;
70433;SDS011;57876;47.792;12.960;2022-12-20T00:30:52;9.10;;;4.87;;
70433;SDS011;57876;47.792;12.960;2022-12-20T00:33:17;9.57;;;4.75;;
70433;SDS011;57876;47.792;12.960;2022-12-20T00:35:41;8.40;;;4.20;;
70433;SDS011;57876;47.792;12.960;2022-12-20T00:38:06;9.80;;;4.53;;
70433;SDS011;57876;47.792;12.960;2022-12-20T00:40:30;9.23;;;4.50;;
70433;SDS011;57876;47.792;12.960;2022-12-20T00:42:54;8.73;;;4.80;;
70433;SDS011;57876;47.792;12.960;2022-12-20T00:45:19;8.98;;;4.50;;
70433;SDS011;57876;47.792;12.960;2022-12-20T00:47:43;10.20;;;4.30;;
70433;SDS011;57876;47.792;12.960;2022-12-20T00:50:08;8.63;;;4.43;;
70433;SDS011;57876;47.792;12.960;2022-12-20T00:52:32;8.97;;;4.33;;
70433;SDS011;57876;47.792;12.960;2022-12-20T00:54:57;8.85;;;4.53;;
70433;SDS011;57876;47.792;12.960;2022-12-20T00:57:21;9.50;;;4.23;;
70433;SDS011;57876;47.792;12.960;2022-12-20T00:59:45;8.90;;;4.37;;
70433;SDS011;57876;47.792;12.960;2022-12-20T01:02:10;8.70;;;4.60;;
70433;SDS011;57876;47.792;12.960;2022-12-20T01:04:34;8.97;;;4.53;;
70433;SDS011;57876;47.792;12.960;2022-12-20T01:06:58;9.17;;;4.33;;
70433;SDS011;57876;47.792;12.960;2022-12-20T01:09:23;8.47;;;4.20;;
70433;SDS011;57876;47.792;12.960;2022-12-20T01:11:47;8.97;;;4.30;;
70433;SDS011;57876;47.792;12.960;2022-12-20T01:14:12;8.57;;;4.37;;
70433;SDS011;57876;47.792;12.960;2022-12-20T01:16:39;8.68;;;4.38;;
70433;SDS011;57876;47.792;12.960;2022-12-20T01:19:05;8.10;;;4.20;;
70433;SDS011;57876;47.792;12.960;2022-12-20T01:21:30;8.95;;;4.72;;
70433;SDS011;57876;47.792;12.960;2022-12-20T01:23:55;9.40;;;4.60;;
70433;SDS011;57876;47.792;12.960;2022-12-20T01:26:20;9.00;;;4.00;;
70433;SDS011;57876;47.792;12.960;2022-12-20T01:28:47;9.73;;;4.30;;
70433;SDS011;57876;47.792;12.960;2022-12-20T01:31:15;8.23;;;4.20;;
70433;SDS011;57876;47.792;12.960;2022-12-20T01:33:41;8.70;;;3.93;;
70433;SDS011;57876;47.792;12.960;2022-12-20T01:36:10;7.95;;;4.18;;
70433;SDS011;57876;47.792;12.960;2022-12-20T01:38:37;9.23;;;4.15;;
70433;SDS011;57876;47.792;12.960;2022-12-20T01:41:02;8.63;;;4.03;;
70433;SDS011;57876;47.792;12.960;2022-12-20T01:43:47;9.20;;;4.00;;
70433;SDS011;57876;47.792;12.960;2022-12-20T01:46:13;9.02;;;4.40;;
70433;SDS011;57876;47.792;12.960;2022-12-20T01:48:38;7.88;;;3.75;;
70433;SDS011;57876;47.792;12.960;2022-12-20T01:51:06;8.03;;;3.63;;
70433;SDS011;57876;47.792;12.960;2022-12-20T01:53:30;7.90;;;3.92;;
70433;SDS011;57876;47.792;12.960;2022-12-20T01:55:55;7.37;;;3.93;;
70433;SDS011;57876;47.792;12.960;2022-12-20T01:58:22;10.07;;;4.32;;
70433;SDS011;57876;47.792;12.960;2022-12-20T02:00:47;7.73;;;3.70;;
70433;SDS011;57876;47.792;12.960;2022-12-20T02:03:12;8.13;;;3.72;;
70433;SDS011;57876;47.792;12.960;2022-12-20T02:05:42;8.57;;;3.90;;
70433;SDS011;57876;47.792;12.960;2022-12-20T02:08:08;7.93;;;3.80;;
70433;SDS011;57876;47.792;12.960;2022-12-20T02:16:23;8.18;;;3.70;;
70433;SDS011;57876;47.792;12.960;2022-12-20T02:22:08;8.20;;;3.93;;
70433;SDS011;57876;47.792;12.960;2022-12-20T02:30:15;9.43;;;3.92;;
70433;SDS011;57876;47.792;12.960;2022-12-20T02:35:30;9.07;;;3.87;;
70433;SDS011;57876;47.792;12.960;2022-12-20T02:37:58;7.78;;;3.97;;
70433;SDS011;57876;47.792;12.960;2022-12-20T02:40:35;7.95;;;4.07;;
70433;SDS011;57876;47.792;12.960;2022-12-20T02:43:04;8.60;;;3.97;;
70433;SDS011;57876;47.792;12.960;2022-12-20T02:45:51;8.93;;;4.25;;
70433;SDS011;57876;47.792;12.960;2022-12-20T02:48:17;7.87;;;3.60;;
70433;SDS011;57876;47.792;12.960;2022-12-20T02:50:44;7.85;;;3.60;;
70433;SDS011;57876;47.792;12.960;2022-12-20T02:53:12;8.43;;;4.00;;
70433;SDS011;57876;47.792;12.960;2022-12-20T02:55:42;8.32;;;4.10;;
70433;SDS011;57876;47.792;12.960;2022-12-20T02:58:31;8.90;;;4.50;;
70433;SDS011;57876;47.792;12.960;2022-12-20T03:01:00;8.53;;;4.40;;
70433;SDS011;57876;47.792;12.960;2022-12-20T03:03:31;8.80;;;4.13;;
70433;SDS011;57876;47.792;12.960;2022-12-20T03:05:57;8.68;;;3.83;;
70433;SDS011;57876;47.792;12.960;2022-12-20T03:08:22;8.25;;;4.10;;
70433;SDS011;57876;47.792;12.960;2022-12-20T03:10:47;9.30;;;4.23;;
70433;SDS011;57876;47.792;12.960;2022-12-20T03:13:12;8.05;;;4.22;;
70433;SDS011;57876;47.792;12.960;2022-12-20T03:15:37;8.10;;;4.10;;
70433;SDS011;57876;47.792;12.960;2022-12-20T03:18:01;8.37;;;4.17;;
70433;SDS011;57876;47.792;12.960;2022-12-20T03:20:26;8.90;;;4.40;;
70433;SDS011;57876;47.792;12.960;2022-12-20T03:22:50;7.90;;;3.90;;
70433;SDS011;57876;47.792;12.960;2022-12-20T03:25:15;8.80;;;3.90;;
70433;SDS011;57876;47.792;12.960;2022-12-20T03:27:40;9.13;;;4.60;;
70433;SDS011;57876;47.792;12.960;2022-12-20T03:30:05;9.13;;;4.22;;
70433;SDS011;57876;47.792;12.960;2022-12-20T03:32:31;9.20;;;4.27;;
70433;SDS011;57876;47.792;12.960;2022-12-20T03:34:55;8.55;;;4.13;;
70433;SDS011;57876;47.792;12.960;2022-12-20T03:37:20;8.10;;;3.87;;
70433;SDS011;57876;47.792;12.960;2022-12-20T03:39:44;10.75;;;4.55;;
70433;SDS011;57876;47.792;12.960;2022-12-20T03:42:09;9.00;;;4.60;;
70433;SDS011;57876;47.792;12.960;2022-12-20T03:44:33;7.83;;;3.73;;
70433;SDS011;57876;47.792;12.960;2022-12-20T03:46:58;8.10;;;4.00;;
70433;SDS011;57876;47.792;12.960;2022-12-20T03:49:22;8.40;;;3.78;;
70433;SDS011;57876;47.792;12.960;2022-12-20T03:51:46;9.33;;;4.47;;
70433;SDS011;57876;47.792;12.960;2022-12-20T03:54:11;9.47;;;4.50;;
70433;SDS011;57876;47.792;12.960;2022-12-20T03:56:35;8.17;;;4.00;;
70433;SDS011;57876;47.792;12.960;2022-12-20T03:59:00;8.57;;;4.33;;
70433;SDS011;57876;47.792;12.960;2022-12-20T04:01:26;8.10;;;3.83;;
70433;SDS011;57876;47.792;12.960;2022-12-20T04:03:51;8.75;;;4.38;;
70433;SDS011;57876;47.792;12.960;2022-12-20T04:06:15;8.40;;;4.40;;
70433;SDS011;57876;47.792;12.960;2022-12-20T04:08:40;9.43;;;4.40;;
70433;SDS011;57876;47.792;12.960;2022-12-20T04:11:05;8.27;;;4.32;;
70433;SDS011;57876;47.792;12.960;2022-12-20T04:13:46;8.43;;;3.92;;
70433;SDS011;57876;47.792;12.960;2022-12-20T04:16:14;9.00;;;4.57;;
70433;SDS011;57876;47.792;12.960;2022-12-20T04:18:40;9.10;;;4.55;;
70433;SDS011;57876;47.792;12.960;2022-12-20T04:21:05;9.13;;;4.47;;
70433;SDS011;57876;47.792;12.960;2022-12-20T04:23:30;8.60;;;4.00;;
70433;SDS011;57876;47.792;12.960;2022-12-20T04:25:55;9.13;;;4.43;;
70433;SDS011;57876;47.792;12.960;2022-12-20T04:28:19;8.67;;;4.50;;
70433;SDS011;57876;47.792;12.960;2022-12-20T04:30:43;8.45;;;3.90;;
70433;SDS011;57876;47.792;12.960;2022-12-20T04:33:08;9.20;;;4.10;;
70433;SDS011;57876;47.792;12.960;2022-12-20T04:35:32;8.90;;;4.30;;
70433;SDS011;57876;47.792;12.960;2022-12-20T04:37:57;8.80;;;4.30;;
70433;SDS011;57876;47.792;12.960;2022-12-20T04:40:21;8.67;;;4.30;;
70433;SDS011;57876;47.792;12.960;2022-12-20T04:42:45;7.88;;;3.92;;
70433;SDS011;57876;47.792;12.960;2022-12-20T04:45:10;9.37;;;4.23;;
70433;SDS011;57876;47.792;12.960;2022-12-20T04:47:34;8.60;;;4.10;;
70433;SDS011;57876;47.792;12.960;2022-12-20T04:49:58;9.87;;;4.60;;
70433;SDS011;57876;47.792;12.960;2022-12-20T04:52:23;9.57;;;4.40;;
70433;SDS011;57876;47.792;12.960;2022-12-20T04:55:06;9.18;;;4.35;;
70433;SDS011;57876;47.792;12.960;2022-12-20T04:57:30;9.00;;;4.10;;
70433;SDS011;57876;47.792;12.960;2022-12-20T04:59:55;8.33;;;4.20;;
70433;SDS011;57876;47.792;12.960;2022-12-20T05:02:19;8.73;;;4.30;;
70433;SDS011;57876;47.792;12.960;2022-12-20T05:04:44;8.98;;;4.20;;
70433;SDS011;57876;47.792;12.960;2022-12-20T05:07:08;8.67;;;4.23;;
70433;SDS011;57876;47.792;12.960;2022-12-20T05:09:32;8.73;;;4.13;;
70433;SDS011;57876;47.792;12.960;2022-12-20T05:11:57;9.57;;;4.30;;
70433;SDS011;57876;47.792;12.960;2022-12-20T05:14:21;9.33;;;4.07;;
70433;SDS011;57876;47.792;12.960;2022-12-20T05:16:45;8.57;;;4.03;;
70433;SDS011;57876;47.792;12.960;2022-12-20T05:19:10;9.17;;;4.37;;
70433;SDS011;57876;47.792;12.960;2022-12-20T05:21:34;9.13;;;4.40;;
70433;SDS011;57876;47.792;12.960;2022-12-20T05:24:17;8.95;;;4.47;;
70433;SDS011;57876;47.792;12.960;2022-12-20T05:27:00;9.25;;;4.47;;
70433;SDS011;57876;47.792;12.960;2022-12-20T05:29:24;10.10;;;4.10;;
70433;SDS011;57876;47.792;12.960;2022-12-20T05:31:49;9.20;;;4.00;;
70433;SDS011;57876;47.792;12.960;2022-12-20T05:34:13;7.73;;;3.80;;
70433;SDS011;57876;47.792;12.960;2022-12-20T05:36:38;9.02;;;4.97;;
70433;SDS011;57876;47.792;12.960;2022-12-20T05:39:02;8.97;;;4.17;;
70433;SDS011;57876;47.792;12.960;2022-12-20T05:41:27;8.73;;;4.70;;
70433;SDS011;57876;47.792;12.960;2022-12-20T05:43:51;9.33;;;4.20;;
70433;SDS011;57876;47.792;12.960;2022-12-20T05:46:15;8.80;;;4.30;;
70433;SDS011;57876;47.792;12.960;2022-12-20T05:48:40;8.73;;;4.17;;
70433;SDS011;57876;47.792;12.960;2022-12-20T05:51:04;8.97;;;4.10;;
70433;SDS011;57876;47.792;12.960;2022-12-20T05:53:29;9.33;;;4.23;;
70433;SDS011;57876;47.792;12.960;2022-12-20T05:55:53;8.00;;;4.10;;
70433;SDS011;57876;47.792;12.960;2022-12-20T05:58:18;9.17;;;4.23;;
70433;SDS011;57876;47.792;12.960;2022-12-20T06:00:43;9.60;;;4.70;;
70433;SDS011;57876;47.792;12.960;2022-12-20T06:03:08;9.40;;;4.28;;
70433;SDS011;57876;47.792;12.960;2022-12-20T06:05:33;8.53;;;4.10;;
70433;SDS011;57876;47.792;12.960;2022-12-20T06:07:58;9.57;;;4.35;;
70433;SDS011;57876;47.792;12.960;2022-12-20T06:10:22;8.83;;;4.30;;
70433;SDS011;57876;47.792;12.960;2022-12-20T06:12:47;9.23;;;3.97;;
70433;SDS011;57876;47.792;12.960;2022-12-20T06:15:11;9.23;;;4.47;;
70433;SDS011;57876;47.792;12.960;2022-12-20T06:17:38;9.63;;;4.63;;
70433;SDS011;57876;47.792;12.960;2022-12-20T06:20:02;10.03;;;4.67;;
70433;SDS011;57876;47.792;12.960;2022-12-20T06:22:27;10.05;;;4.70;;
70433;SDS011;57876;47.792;12.960;2022-12-20T06:24:52;9.80;;;4.60;;
70433;SDS011;57876;47.792;12.960;2022-12-20T06:27:16;9.37;;;4.40;;
70433;SDS011;57876;47.792;12.960;2022-12-20T06:29:41;9.23;;;4.35;;
70433;SDS011;57876;47.792;12.960;2022-12-20T06:32:12;9.57;;;4.55;;
70433;SDS011;57876;47.792;12.960;2022-12-20T06:34:36;9.13;;;4.43;;
70433;SDS011;57876;47.792;12.960;2022-12-20T06:37:01;9.70;;;4.60;;
70433;SDS011;57876;47.792;12.960;2022-12-20T06:39:25;8.47;;;4.20;;
70433;SDS011;57876;47.792;12.960;2022-12-20T06:41:49;8.57;;;4.20;;
70433;SDS011;57876;47.792;12.960;2022-12-20T06:44:14;8.67;;;4.47;;
70433;SDS011;57876;47.792;12.960;2022-12-20T06:46:38;9.13;;;4.60;;
70433;SDS011;57876;47.792;12.960;2022-12-20T06:49:03;9.03;;;4.53;;
70433;SDS011;57876;47.792;12.960;2022-12-20T06:51:27;9.27;;;4.77;;
70433;SDS011;57876;47.792;12.960;2022-12-20T06:53:51;8.70;;;4.10;;
70433;SDS011;57876;47.792;12.960;2022-12-20T06:56:16;9.38;;;4.43;;
70433;SDS011;57876;47.792;12.960;2022-12-20T06:58:40;8.27;;;4.13;;
70433;SDS011;57876;47.792;12.960;2022-12-20T07:01:05;10.60;;;4.63;;
70433;SDS011;57876;47.792;12.960;2022-12-20T07:03:29;10.10;;;4.20;;
70433;SDS011;57876;47.792;12.960;2022-12-20T07:05:53;10.07;;;5.00;;
70433;SDS011;57876;47.792;12.960;2022-12-20T07:08:18;9.27;;;4.35;;
70433;SDS011;57876;47.792;12.960;2022-12-20T07:10:43;10.27;;;5.00;;
70433;SDS011;57876;47.792;12.960;2022-12-20T07:13:08;11.27;;;4.70;;
70433;SDS011;57876;47.792;12.960;2022-12-20T07:15:32;9.73;;;4.90;;
70433;SDS011;57876;47.792;12.960;2022-12-20T07:17:58;9.35;;;4.78;;
70433;SDS011;57876;47.792;12.960;2022-12-20T07:20:22;10.37;;;4.80;;
70433;SDS011;57876;47.792;12.960;2022-12-20T07:22:46;10.50;;;4.70;;
70433;SDS011;57876;47.792;12.960;2022-12-20T07:25:11;9.50;;;4.38;;
70433;SDS011;57876;47.792;12.960;2022-12-20T07:27:35;10.37;;;4.90;;
70433;SDS011;57876;47.792;12.960;2022-12-20T07:30:00;9.50;;;4.47;;
70433;SDS011;57876;47.792;12.960;2022-12-20T07:32:24;11.00;;;5.15;;
70433;SDS011;57876;47.792;12.960;2022-12-20T07:34:49;9.97;;;4.63;;
70433;SDS011;57876;47.792;12.960;2022-12-20T07:37:13;9.97;;;5.00;;
70433;SDS011;57876;47.792;12.960;2022-12-20T07:39:37;9.53;;;4.57;;
70433;SDS011;57876;47.792;12.960;2022-12-20T07:42:02;9.27;;;4.67;;
70433;SDS011;57876;47.792;12.960;2022-12-20T07:44:26;10.73;;;4.82;;
70433;SDS011;57876;47.792;12.960;2022-12-20T07:46:51;9.80;;;5.13;;
70433;SDS011;57876;47.792;12.960;2022-12-20T07:49:15;12.20;;;5.33;;
70433;SDS011;57876;47.792;12.960;2022-12-20T07:51:41;10.23;;;5.17;;
70433;SDS011;57876;47.792;12.960;2022-12-20T07:54:09;11.02;;;5.40;;
70433;SDS011;57876;47.792;12.960;2022-12-20T07:56:38;10.90;;;5.47;;
70433;SDS011;57876;47.792;12.960;2022-12-20T07:59:05;11.50;;;5.72;;
70433;SDS011;57876;47.792;12.960;2022-12-20T08:01:31;11.68;;;5.40;;
70433;SDS011;57876;47.792;12.960;2022-12-20T08:04:03;11.50;;;5.97;;
70433;SDS011;57876;47.792;12.960;2022-12-20T08:06:32;11.05;;;5.68;;
70433;SDS011;57876;47.792;12.960;2022-12-20T08:08:58;10.27;;;5.70;;
70433;SDS011;57876;47.792;12.960;2022-12-20T08:11:26;10.77;;;5.60;;
70433;SDS011;57876;47.792;12.960;2022-12-20T08:13:52;11.15;;;5.45;;
70433;SDS011;57876;47.792;12.960;2022-12-20T08:16:17;12.23;;;6.20;;
70433;SDS011;57876;47.792;12.960;2022-12-20T08:18:41;11.23;;;5.70;;
70433;SDS011;57876;47.792;12.960;2022-12-20T08:21:06;11.05;;;5.60;;
70433;SDS011;57876;47.792;12.960;2022-12-20T08:23:31;11.32;;;6.03;;
70433;SDS011;57876;47.792;12.960;2022-12-20T08:25:56;11.93;;;6.80;;
70433;SDS011;57876;47.792;12.960;2022-12-20T08:28:24;12.32;;;6.03;;
70433;SDS011;57876;47.792;12.960;2022-12-20T08:30:48;11.27;;;5.73;;
70433;SDS011;57876;47.792;12.960;2022-12-20T08:33:12;11.10;;;5.50;;
70433;SDS011;57876;47.792;12.960;2022-12-20T08:35:37;10.80;;;5.40;;
70433;SDS011;57876;47.792;12.960;2022-12-20T08:38:01;10.60;;;5.70;;
70433;SDS011;57876;47.792;12.960;2022-12-20T08:40:25;10.90;;;5.60;;
70433;SDS011;57876;47.792;12.960;2022-12-20T08:42:50;11.20;;;5.73;;
70433;SDS011;57876;47.792;12.960;2022-12-20T08:45:14;10.50;;;5.70;;
70433;SDS011;57876;47.792;12.960;2022-12-20T08:47:39;13.33;;;6.20;;
70433;SDS011;57876;47.792;12.960;2022-12-20T08:50:03;11.47;;;5.90;;
70433;SDS011;57876;47.792;12.960;2022-12-20T08:52:28;11.23;;;5.50;;
70433;SDS011;57876;47.792;12.960;2022-12-20T08:54:53;10.80;;;5.72;;
70433;SDS011;57876;47.792;12.960;2022-12-20T08:57:17;12.17;;;6.00;;
70433;SDS011;57876;47.792;12.960;2022-12-20T08:59:41;11.80;;;5.87;;
70433;SDS011;57876;47.792;12.960;2022-12-20T09:02:06;12.27;;;6.13;;
70433;SDS011;57876;47.792;12.960;2022-12-20T09:04:30;10.57;;;5.40;;
70433;SDS011;57876;47.792;12.960;2022-12-20T09:06:55;10.70;;;5.50;;
70433;SDS011;57876;47.792;12.960;2022-12-20T09:09:19;12.40;;;5.97;;
70433;SDS011;57876;47.792;12.960;2022-12-20T09:11:44;10.40;;;5.67;;
70433;SDS011;57876;47.792;12.960;2022-12-20T09:14:08;10.87;;;5.60;;
70433;SDS011;57876;47.792;12.960;2022-12-20T09:16:32;10.25;;;5.32;;
70433;SDS011;57876;47.792;12.960;2022-12-20T09:18:58;11.80;;;5.67;;
70433;SDS011;57876;47.792;12.960;2022-12-20T09:21:24;10.27;;;5.80;;
70433;SDS011;57876;47.792;12.960;2022-12-20T09:23:50;11.20;;;5.83;;
70433;SDS011;57876;47.792;12.960;2022-12-20T09:26:16;10.57;;;5.70;;
70433;SDS011;57876;47.792;12.960;2022-12-20T09:28:41;10.70;;;5.90;;
70433;SDS011;57876;47.792;12.960;2022-12-20T09:31:09;11.05;;;5.50;;
70433;SDS011;57876;47.792;12.960;2022-12-20T09:33:37;11.23;;;5.27;;
70433;SDS011;57876;47.792;12.960;2022-12-20T09:36:02;9.90;;;5.10;;
70433;SDS011;57876;47.792;12.960;2022-12-20T09:38:27;12.38;;;5.50;;
70433;SDS011;57876;47.792;12.960;2022-12-20T09:40:55;9.57;;;5.60;;
70433;SDS011;57876;47.792;12.960;2022-12-20T09:43:21;11.05;;;5.78;;
70433;SDS011;57876;47.792;12.960;2022-12-20T09:45:47;11.20;;;6.80;;
70433;SDS011;57876;47.792;12.960;2022-12-20T09:48:20;9.95;;;5.25;;
70433;SDS011;57876;47.792;12.960;2022-12-20T09:56:09;10.48;;;5.53;;
70433;SDS011;57876;47.792;12.960;2022-12-20T09:58:50;10.00;;;5.30;;
70433;SDS011;57876;47.792;12.960;2022-12-20T10:01:22;10.90;;;5.47;;
70433;SDS011;57876;47.792;12.960;2022-12-20T10:03:48;10.50;;;4.80;;
70433;SDS011;57876;47.792;12.960;2022-12-20T10:08:56;8.93;;;4.87;;
70433;SDS011;57876;47.792;12.960;2022-12-20T10:11:57;10.52;;;5.13;;
70433;SDS011;57876;47.792;12.960;2022-12-20T10:17:16;9.25;;;4.80;;
70433;SDS011;57876;47.792;12.960;2022-12-20T10:22:52;9.57;;;5.00;;
70433;SDS011;57876;47.792;12.960;2022-12-20T10:25:30;10.48;;;5.13;;
70433;SDS011;57876;47.792;12.960;2022-12-20T10:27:56;9.55;;;5.40;;
70433;SDS011;57876;47.792;12.960;2022-12-20T10:30:25;9.98;;;5.10;;
70433;SDS011;57876;47.792;12.960;2022-12-20T10:32:51;10.05;;;5.20;;
70433;SDS011;57876;47.792;12.960;2022-12-20T10:35:21;10.83;;;5.13;;
70433;SDS011;57876;47.792;12.960;2022-12-20T10:37:58;9.70;;;4.78;;
70433;SDS011;57876;47.792;12.960;2022-12-20T10:42:59;9.25;;;4.68;;
70433;SDS011;57876;47.792;12.960;2022-12-20T10:45:31;9.60;;;5.03;;
70433;SDS011;57876;47.792;12.960;2022-12-20T10:48:01;9.93;;;5.00;;
70433;SDS011;57876;47.792;12.960;2022-12-20T10:50:28;9.70;;;5.45;;
70433;SDS011;57876;47.792;12.960;2022-12-20T10:55:47;10.33;;;4.90;;
70433;SDS011;57876;47.792;12.960;2022-12-20T10:58:30;8.85;;;4.70;;
70433;SDS011;57876;47.792;12.960;2022-12-20T11:03:50;10.98;;;4.80;;
70433;SDS011;57876;47.792;12.960;2022-12-20T11:06:18;10.95;;;4.88;;
70433;SDS011;57876;47.792;12.960;2022-12-20T11:08:44;10.57;;;5.60;;
70433;SDS011;57876;47.792;12.960;2022-12-20T11:13:37;10.63;;;5.13;;
70433;SDS011;57876;47.792;12.960;2022-12-20T11:16:03;11.50;;;5.55;;
70433;SDS011;57876;47.792;12.960;2022-12-20T11:18:31;11.37;;;5.40;;
70433;SDS011;57876;47.792;12.960;2022-12-20T11:37:29;10.57;;;5.50;;
70433;SDS011;57876;47.792;12.960;2022-12-20T11:55:57;11.60;;;5.65;;
70433;SDS011;57876;47.792;12.960;2022-12-20T11:58:26;11.53;;;5.87;;
70433;SDS011;57876;47.792;12.960;2022-12-20T12:01:06;11.98;;;6.30;;
70433;SDS011;57876;47.792;12.960;2022-12-20T12:03:37;12.68;;;6.35;;
70433;SDS011;57876;47.792;12.960;2022-12-20T12:06:17;12.43;;;6.28;;
70433;SDS011;57876;47.792;12.960;2022-12-20T12:08:46;12.48;;;5.90;;
70433;SDS011;57876;47.792;12.960;2022-12-20T12:11:18;12.07;;;6.40;;
70433;SDS011;57876;47.792;12.960;2022-12-20T12:13:47;11.82;;;6.55;;
70433;SDS011;57876;47.792;12.960;2022-12-20T12:16:19;12.43;;;6.53;;
70433;SDS011;57876;47.792;12.960;2022-12-20T12:18:51;10.88;;;5.88;;
70433;SDS011;57876;47.792;12.960;2022-12-20T12:21:22;11.63;;;5.80;;
70433;SDS011;57876;47.792;12.960;2022-12-20T12:26:25;12.13;;;6.20;;
70433;SDS011;57876;47.792;12.960;2022-12-20T12:28:56;12.65;;;5.97;;
70433;SDS011;57876;47.792;12.960;2022-12-20T12:31:27;10.77;;;5.63;;
70433;SDS011;57876;47.792;12.960;2022-12-20T12:39:37;11.27;;;5.65;;
70433;SDS011;57876;47.792;12.960;2022-12-20T12:45:06;11.03;;;5.43;;
70433;SDS011;57876;47.792;12.960;2022-12-20T12:50:13;11.95;;;6.00;;
70433;SDS011;57876;47.792;12.960;2022-12-20T12:52:53;10.77;;;5.30;;
70433;SDS011;57876;47.792;12.960;2022-12-20T13:16:48;11.43;;;5.40;;
70433;SDS011;57876;47.792;12.960;2022-12-20T13:21:56;10.90;;;5.37;;
70433;SDS011;57876;47.792;12.960;2022-12-20T13:27:13;9.32;;;5.13;;
70433;SDS011;57876;47.792;12.960;2022-12-20T13:29:50;10.57;;;5.30;;
70433;SDS011;57876;47.792;12.960;2022-12-20T13:38:03;10.10;;;5.10;;
70433;SDS011;57876;47.792;12.960;2022-12-20T13:40:53;9.65;;;4.65;;
70433;SDS011;57876;47.792;12.960;2022-12-20T13:45:46;10.50;;;4.87;;
70433;SDS011;57876;47.792;12.960;2022-12-20T13:48:17;10.05;;;5.05;;
70433;SDS011;57876;47.792;12.960;2022-12-20T13:50:48;10.07;;;5.03;;
70433;SDS011;57876;47.792;12.960;2022-12-20T13:53:16;9.27;;;4.63;;
70433;SDS011;57876;47.792;12.960;2022-12-20T13:55:42;9.65;;;4.90;;
70433;SDS011;57876;47.792;12.960;2022-12-20T14:00:53;10.13;;;4.93;;
70433;SDS011;57876;47.792;12.960;2022-12-20T14:03:28;10.77;;;5.18;;
70433;SDS011;57876;47.792;12.960;2022-12-20T14:05:56;8.68;;;4.45;;
70433;SDS011;57876;47.792;12.960;2022-12-20T14:08:23;9.20;;;4.82;;
70433;SDS011;57876;47.792;12.960;2022-12-20T14:10:51;10.10;;;4.77;;
70433;SDS011;57876;47.792;12.960;2022-12-20T14:13:21;10.32;;;4.93;;
70433;SDS011;57876;47.792;12.960;2022-12-20T14:15:47;10.82;;;4.68;;
70433;SDS011;57876;47.792;12.960;2022-12-20T14:20:43;9.50;;;4.80;;
70433;SDS011;57876;47.792;12.960;2022-12-20T14:23:10;9.95;;;4.40;;
70433;SDS011;57876;47.792;12.960;2022-12-20T14:25:56;9.75;;;4.72;;
70433;SDS011;57876;47.792;12.960;2022-12-20T14:28:27;8.63;;;4.03;;
70433;SDS011;57876;47.792;12.960;2022-12-20T14:30:53;10.10;;;4.65;;
70433;SDS011;57876;47.792;12.960;2022-12-20T14:33:35;9.27;;;4.73;;
70433;SDS011;57876;47.792;12.960;2022-12-20T14:38:43;9.02;;;4.10;;
70433;SDS011;57876;47.792;12.960;2022-12-20T14:44:14;8.27;;;3.90;;
70433;SDS011;57876;47.792;12.960;2022-12-20T14:46:40;8.93;;;4.13;;
70433;SDS011;57876;47.792;12.960;2022-12-20T14:49:17;8.82;;;4.55;;
70433;SDS011;57876;47.792;12.960;2022-12-20T14:51:47;8.13;;;4.10;;
70433;SDS011;57876;47.792;12.960;2022-12-20T14:54:20;8.68;;;4.32;;
70433;SDS011;57876;47.792;12.960;2022-12-20T14:56:48;9.48;;;4.32;;
70433;SDS011;57876;47.792;12.960;2022-12-20T14:59:15;8.83;;;4.27;;
70433;SDS011;57876;47.792;12.960;2022-12-20T15:01:49;9.05;;;4.15;;
70433;SDS011;57876;47.792;12.960;2022-12-20T15:04:21;9.65;;;4.00;;
70433;SDS011;57876;47.792;12.960;2022-12-20T15:06:48;9.30;;;4.30;;
70433;SDS011;57876;47.792;12.960;2022-12-20T15:09:15;9.60;;;4.50;;
70433;SDS011;57876;47.792;12.960;2022-12-20T15:11:41;9.30;;;4.40;;
70433;SDS011;57876;47.792;12.960;2022-12-20T15:16:56;7.75;;;3.78;;
70433;SDS011;57876;47.792;12.960;2022-12-20T15:19:21;9.27;;;4.27;;
70433;SDS011;57876;47.792;12.960;2022-12-20T15:21:45;8.33;;;4.00;;
70433;SDS011;57876;47.792;12.960;2022-12-20T15:24:14;8.53;;;4.10;;
70433;SDS011;57876;47.792;12.960;2022-12-20T15:26:41;8.85;;;4.13;;
70433;SDS011;57876;47.792;12.960;2022-12-20T15:29:06;9.00;;;4.07;;
70433;SDS011;57876;47.792;12.960;2022-12-20T15:31:34;8.43;;;4.13;;
70433;SDS011;57876;47.792;12.960;2022-12-20T15:34:00;8.32;;;3.92;;
70433;SDS011;57876;47.792;12.960;2022-12-20T15:36:33;7.50;;;3.67;;
70433;SDS011;57876;47.792;12.960;2022-12-20T15:38:57;8.05;;;3.85;;
70433;SDS011;57876;47.792;12.960;2022-12-20T15:43:46;8.20;;;3.77;;
70433;SDS011;57876;47.792;12.960;2022-12-20T15:46:15;8.07;;;3.60;;
70433;SDS011;57876;47.792;12.960;2022-12-20T15:48:39;8.00;;;3.80;;
70433;SDS011;57876;47.792;12.960;2022-12-20T15:51:10;8.90;;;3.93;;
70433;SDS011;57876;47.792;12.960;2022-12-20T15:53:39;8.07;;;3.95;;
70433;SDS011;57876;47.792;12.960;2022-12-20T15:56:03;8.60;;;4.10;;
70433;SDS011;57876;47.792;12.960;2022-12-20T15:58:28;8.02;;;3.72;;
70433;SDS011;57876;47.792;12.960;2022-12-20T16:00:59;9.60;;;4.17;;
70433;SDS011;57876;47.792;12.960;2022-12-20T16:03:28;8.48;;;3.65;;
70433;SDS011;57876;47.792;12.960;2022-12-20T16:05:54;8.20;;;3.72;;
70433;SDS011;57876;47.792;12.960;2022-12-20T16:08:19;7.70;;;3.53;;
70433;SDS011;57876;47.792;12.960;2022-12-20T16:10:44;8.70;;;3.83;;
70433;SDS011;57876;47.792;12.960;2022-12-20T16:13:14;8.30;;;4.00;;
70433;SDS011;57876;47.792;12.960;2022-12-20T16:15:40;7.88;;;3.83;;
70433;SDS011;57876;47.792;12.960;2022-12-20T16:18:04;8.33;;;3.80;;
70433;SDS011;57876;47.792;12.960;2022-12-20T16:20:29;7.90;;;3.72;;
70433;SDS011;57876;47.792;12.960;2022-12-20T16:22:53;8.90;;;3.77;;
70433;SDS011;57876;47.792;12.960;2022-12-20T16:25:26;8.02;;;3.67;;
70433;SDS011;57876;47.792;12.960;2022-12-20T16:27:58;8.33;;;3.50;;
70433;SDS011;57876;47.792;12.960;2022-12-20T16:30:23;7.68;;;3.55;;
70433;SDS011;57876;47.792;12.960;2022-12-20T16:32:48;7.57;;;3.53;;
70433;SDS011;57876;47.792;12.960;2022-12-20T16:35:32;7.78;;;3.63;;
70433;SDS011;57876;47.792;12.960;2022-12-20T16:38:00;7.60;;;3.38;;
70433;SDS011;57876;47.792;12.960;2022-12-20T16:40:25;7.73;;;3.70;;
70433;SDS011;57876;47.792;12.960;2022-12-20T16:42:54;8.05;;;3.70;;
70433;SDS011;57876;47.792;12.960;2022-12-20T16:45:21;7.60;;;3.50;;
70433;SDS011;57876;47.792;12.960;2022-12-20T16:47:47;7.93;;;3.72;;
70433;SDS011;57876;47.792;12.960;2022-12-20T16:50:13;9.63;;;4.03;;